CMA CGM Africa One — C6YR8 — position and weather

sailwx.info

Track history (hours):
 
Tides and Currents Weather Stations Pressure Air Temp Water Temp Dewpoint Dewpoint Depression Visibility Wind Speed Wind Dir Waves Ship Positions

CMA CGM Africa One

Last reported at 2017-Nov-20 00:22 UTC. Time now 2017-Nov-22 02:04 UTC.
Position N 51°00' E 002°11'.

Length 228 m; draft 7.7 m.

Type: Ship (hazmat cat A). MMSI: 311043200.

Date/timePositionNaut miles runAvg speedWind from/ knotsBaromVisibWave heightAir tempDewpointWater temp
2017-Nov-20 00:22N 51°00' E 002°11'0 0.0
2017-Nov-19 23:58N 51°00' E 002°11'0 0.0
2017-Nov-19 23:30N 51°00' E 002°11'0 0.0
2017-Nov-19 22:58N 51°00' E 002°11'0 0.0
2017-Nov-19 22:31N 51°00' E 002°11'1 2.7
2017-Nov-19 22:00N 51°02' E 002°10'611.3
2017-Nov-19 21:30N 51°03' E 002°01'714.4
2017-Nov-19 21:01N 51°02' E 001°50'612.9
2017-Nov-19 20:30N 51°01' E 001°40'714.2
2017-Nov-19 20:00N 50°56' E 001°32'1314.3
2017-Nov-19 19:05N 50°43' E 001°24'115.0
2017-Nov-19 19:00N 50°42' E 001°23'2214.6
2017-Nov-19 17:31N 50°28' E 000°57'215.4
2017-Nov-19 17:22N 50°28' E 000°54'615.4
2017-Nov-19 17:00N 50°26' E 000°45'915.8
2017-Nov-19 16:26N 50°24' E 000°32'717.0
2017-Nov-19 16:00N 50°21' E 000°21'816.8
2017-Nov-19 15:30N 50°18' E 000°08'1016.6
2017-Nov-19 14:54N 50°16' W 000°07'716.5
2017-Nov-19 14:30N 50°14' W 000°16'816.1
2017-Nov-19 14:00N 50°12' W 000°29'815.9
2017-Nov-19 13:30N 50°10' W 000°40'1413.8
2017-Nov-19 12:28N 50°06' W 001°02'714.3
2017-Nov-19 12:00N 50°05' W 001°12'815.1
2017-Nov-19 11:30N 50°04' W 001°24'815.9
2017-Nov-19 11:01N 50°02' W 001°36'816.7
2017-Nov-19 10:30N 50°00' W 001°49'917.4
2017-Nov-19 10:00N 49°59' W 002°02'917.7
2017-Nov-19 09:30N 49°57' W 002°16'1017.6
2017-Nov-19 08:56N 49°54' W 002°31'817.3
2017-Nov-19 08:29N 49°52' W 002°42'817.2
2017-Nov-19 08:00N 49°50' W 002°55'817.0
2017-Nov-19 07:30N 49°47' W 003°07'1017.7
2017-Nov-19 06:57N 49°41' W 003°19'6719.0
2017-Nov-19 03:26N 49°05' W 004°45'1019.3
2017-Nov-19 02:55N 49°00' W 004°58'1019.1
2017-Nov-19 02:23N 48°54' W 005°11'719.0
2017-Nov-19 02:00N 48°51' W 005°21'918.9
2017-Nov-19 01:30N 48°47' W 005°34'1418.1
2017-Nov-19 00:43N 48°35' W 005°46'518.4
2017-Nov-19 00:26N 48°30' W 005°49'817.6
2017-Nov-19 00:00N 48°24' W 005°55'917.5
2017-Nov-18 23:28N 48°15' W 006°00'817.3
2017-Nov-18 23:00N 48°08' W 006°06'917.2
2017-Nov-18 22:30N 48°00' W 006°12'917.0
2017-Nov-18 21:58N 47°52' W 006°18'916.1
2017-Nov-18 21:27N 47°45' W 006°24'715.8
2017-Nov-18 21:00N 47°38' W 006°29'815.5
2017-Nov-18 20:30N 47°32' W 006°34'917.4
2017-Nov-18 19:59N 47°24' W 006°41'918.5
2017-Nov-18 19:28N 47°16' W 006°47'1518.6
2017-Nov-18 18:41N 47°03' W 006°58'1218.7
2017-Nov-18 18:02N 46°52' W 007°06'116.6
2017-Nov-18 18:01N 46°52' W 007°06'42616.7
2017-Nov-17 16:34N 40°03' W 009°50'2117.2
2017-Nov-17 15:21N 39°42' W 009°49'616.7
2017-Nov-17 15:00N 39°36' W 009°49'1017.1
2017-Nov-17 14:24N 39°26' W 009°50'717.9
2017-Nov-17 14:00N 39°19' W 009°51'918.3
2017-Nov-17 13:30N 39°10' W 009°51'918.0
2017-Nov-17 13:00N 39°01' W 009°51'918.0
2017-Nov-17 12:30N 38°52' W 009°51'917.4
2017-Nov-17 12:00N 38°43' W 009°51'816.3
2017-Nov-17 11:30N 38°35' W 009°48'815.8
2017-Nov-17 11:00N 38°27' W 009°46'816.3
2017-Nov-17 10:30N 38°19' W 009°44'815.9
2017-Nov-17 10:00N 38°12' W 009°42'816.5
2017-Nov-17 09:30N 38°04' W 009°39'816.9
2017-Nov-17 09:00N 37°55' W 009°37'817.0
2017-Nov-17 08:31N 37°47' W 009°34'816.9
2017-Nov-17 08:00N 37°39' W 009°32'816.7
2017-Nov-17 07:30N 37°31' W 009°29'816.6
2017-Nov-17 07:00N 37°23' W 009°26'816.7
2017-Nov-17 06:30N 37°15' W 009°23'816.5
2017-Nov-17 06:00N 37°07' W 009°22'816.4
2017-Nov-17 05:30N 36°59' W 009°20'816.1
2017-Nov-17 05:00N 36°51' W 009°16'1216.5
2017-Nov-17 04:19N 36°44' W 009°05'17517.2
2017-Nov-16 18:07N 35°58' W 005°35'215.2
2017-Nov-16 17:59N 35°59' W 005°32'814.9
2017-Nov-16 17:28N 36°03' W 005°24'5 0.5
2017-Nov-16 06:56N 36°08' W 005°25'0 0.0
2017-Nov-16 06:28N 36°08' W 005°25'0 0.0
2017-Nov-16 06:00N 36°08' W 005°25'0 0.0
2017-Nov-16 05:26N 36°08' W 005°25'0 0.0
2017-Nov-16 04:08N 36°08' W 005°25'0 0.0
2017-Nov-16 03:44N 36°08' W 005°25'0 0.0
2017-Nov-16 03:29N 36°08' W 005°25'0 0.0
2017-Nov-16 02:49N 36°08' W 005°25'0 0.0
2017-Nov-16 02:07N 36°08' W 005°25'0 0.0
2017-Nov-16 01:58N 36°08' W 005°25'0 0.0
2017-Nov-16 01:27N 36°08' W 005°25'0 0.0
2017-Nov-16 00:50N 36°08' W 005°25'0 0.0
2017-Nov-16 00:28N 36°08' W 005°25'0 0.0
2017-Nov-16 00:00N 36°08' W 005°25'0 0.0
2017-Nov-15 23:29N 36°08' W 005°25'0 0.0
2017-Nov-15 22:59N 36°08' W 005°25'0 0.0
2017-Nov-15 22:25N 36°08' W 005°25'0 0.0
2017-Nov-15 21:55N 36°08' W 005°25'0 0.0
2017-Nov-15 21:28N 36°08' W 005°25'0 0.0
2017-Nov-15 19:51N 36°08' W 005°25'0 0.0
2017-Nov-15 19:27N 36°08' W 005°25'6 1.3
2017-Nov-15 14:45N 36°02' W 005°23'3 9.7
2017-Nov-15 14:29N 35°59' W 005°24'4 9.3
2017-Nov-15 14:01N 35°58' W 005°29'56318.4
2017-Nov-14 07:19N 28°59' W 012°55'412.9
2017-Nov-14 07:00N 28°55' W 012°58'812.5
2017-Nov-14 06:21N 28°49' W 013°03'412.6
2017-Nov-14 06:00N 28°45' W 013°07'712.9
2017-Nov-14 05:29N 28°40' W 013°11'813.1
2017-Nov-14 04:54N 28°34' W 013°16'613.2
2017-Nov-14 04:28N 28°29' W 013°20'1113.5
2017-Nov-14 03:41N 28°20' W 013°27'613.4
2017-Nov-14 03:16N 28°16' W 013°30'613.5
2017-Nov-14 02:48N 28°11' W 013°35'413.5
2017-Nov-14 02:30N 28°08' W 013°37'713.5
2017-Nov-14 02:00N 28°02' W 013°42'913.4
2017-Nov-14 01:19N 27°55' W 013°48'413.3
2017-Nov-14 01:00N 27°51' W 013°50'  
2017-Nov-10 23:13N 08°18' W 014°30'  
Track history (hours):
 
Tides and Currents Weather Stations Pressure Air Temp Water Temp Dewpoint Dewpoint Depression Visibility Wind Speed Wind Dir Waves Ship Positions

CMA CGM Africa One

Last reported at 2017-Nov-20 00:22 UTC. Time now 2017-Nov-22 02:04 UTC.
Position N 51°00' E 002°11'.

Length 228 m; draft 7.7 m.

Type: Ship (hazmat cat A). MMSI: 311043200.

Date/timePositionNaut miles runAvg speedWind from/ knotsBaromVisibWave heightAir tempDewpointWater temp
2017-Nov-20 00:22N 51°00' E 002°11'0 0.0
2017-Nov-19 23:58N 51°00' E 002°11'0 0.0
2017-Nov-19 23:30N 51°00' E 002°11'0 0.0
2017-Nov-19 22:58N 51°00' E 002°11'0 0.0
2017-Nov-19 22:31N 51°00' E 002°11'1 2.7
2017-Nov-19 22:00N 51°02' E 002°10'611.3
2017-Nov-19 21:30N 51°03' E 002°01'714.4
2017-Nov-19 21:01N 51°02' E 001°50'612.9
2017-Nov-19 20:30N 51°01' E 001°40'714.2
2017-Nov-19 20:00N 50°56' E 001°32'1314.3
2017-Nov-19 19:05N 50°43' E 001°24'115.0
2017-Nov-19 19:00N 50°42' E 001°23'2214.6
2017-Nov-19 17:31N 50°28' E 000°57'215.4
2017-Nov-19 17:22N 50°28' E 000°54'615.4
2017-Nov-19 17:00N 50°26' E 000°45'915.8
2017-Nov-19 16:26N 50°24' E 000°32'717.0
2017-Nov-19 16:00N 50°21' E 000°21'816.8
2017-Nov-19 15:30N 50°18' E 000°08'1016.6
2017-Nov-19 14:54N 50°16' W 000°07'716.5
2017-Nov-19 14:30N 50°14' W 000°16'816.1
2017-Nov-19 14:00N 50°12' W 000°29'815.9
2017-Nov-19 13:30N 50°10' W 000°40'1413.8
2017-Nov-19 12:28N 50°06' W 001°02'714.3
2017-Nov-19 12:00N 50°05' W 001°12'815.1
2017-Nov-19 11:30N 50°04' W 001°24'815.9
2017-Nov-19 11:01N 50°02' W 001°36'816.7
2017-Nov-19 10:30N 50°00' W 001°49'917.4
2017-Nov-19 10:00N 49°59' W 002°02'917.7
2017-Nov-19 09:30N 49°57' W 002°16'1017.6
2017-Nov-19 08:56N 49°54' W 002°31'817.3
2017-Nov-19 08:29N 49°52' W 002°42'817.2
2017-Nov-19 08:00N 49°50' W 002°55'817.0
2017-Nov-19 07:30N 49°47' W 003°07'1017.7
2017-Nov-19 06:57N 49°41' W 003°19'6719.0
2017-Nov-19 03:26N 49°05' W 004°45'1019.3
2017-Nov-19 02:55N 49°00' W 004°58'1019.1
2017-Nov-19 02:23N 48°54' W 005°11'719.0
2017-Nov-19 02:00N 48°51' W 005°21'918.9
2017-Nov-19 01:30N 48°47' W 005°34'1418.1
2017-Nov-19 00:43N 48°35' W 005°46'518.4
2017-Nov-19 00:26N 48°30' W 005°49'817.6
2017-Nov-19 00:00N 48°24' W 005°55'917.5
2017-Nov-18 23:28N 48°15' W 006°00'817.3
2017-Nov-18 23:00N 48°08' W 006°06'917.2
2017-Nov-18 22:30N 48°00' W 006°12'917.0
2017-Nov-18 21:58N 47°52' W 006°18'916.1
2017-Nov-18 21:27N 47°45' W 006°24'715.8
2017-Nov-18 21:00N 47°38' W 006°29'815.5
2017-Nov-18 20:30N 47°32' W 006°34'917.4
2017-Nov-18 19:59N 47°24' W 006°41'918.5
2017-Nov-18 19:28N 47°16' W 006°47'1518.6
2017-Nov-18 18:41N 47°03' W 006°58'1218.7
2017-Nov-18 18:02N 46°52' W 007°06'116.6
2017-Nov-18 18:01N 46°52' W 007°06'42616.7
2017-Nov-17 16:34N 40°03' W 009°50'2117.2
2017-Nov-17 15:21N 39°42' W 009°49'616.7
2017-Nov-17 15:00N 39°36' W 009°49'1017.1
2017-Nov-17 14:24N 39°26' W 009°50'717.9
2017-Nov-17 14:00N 39°19' W 009°51'918.3
2017-Nov-17 13:30N 39°10' W 009°51'918.0
2017-Nov-17 13:00N 39°01' W 009°51'918.0
2017-Nov-17 12:30N 38°52' W 009°51'917.4
2017-Nov-17 12:00N 38°43' W 009°51'816.3
2017-Nov-17 11:30N 38°35' W 009°48'815.8
2017-Nov-17 11:00N 38°27' W 009°46'816.3
2017-Nov-17 10:30N 38°19' W 009°44'815.9
2017-Nov-17 10:00N 38°12' W 009°42'816.5
2017-Nov-17 09:30N 38°04' W 009°39'816.9
2017-Nov-17 09:00N 37°55' W 009°37'817.0
2017-Nov-17 08:31N 37°47' W 009°34'816.9
2017-Nov-17 08:00N 37°39' W 009°32'816.7
2017-Nov-17 07:30N 37°31' W 009°29'816.6
2017-Nov-17 07:00N 37°23' W 009°26'816.7
2017-Nov-17 06:30N 37°15' W 009°23'816.5
2017-Nov-17 06:00N 37°07' W 009°22'816.4
2017-Nov-17 05:30N 36°59' W 009°20'816.1
2017-Nov-17 05:00N 36°51' W 009°16'1216.5
2017-Nov-17 04:19N 36°44' W 009°05'17517.2
2017-Nov-16 18:07N 35°58' W 005°35'215.2
2017-Nov-16 17:59N 35°59' W 005°32'814.9
2017-Nov-16 17:28N 36°03' W 005°24'5 0.5
2017-Nov-16 06:56N 36°08' W 005°25'0 0.0
2017-Nov-16 06:28N 36°08' W 005°25'0 0.0
2017-Nov-16 06:00N 36°08' W 005°25'0 0.0
2017-Nov-16 05:26N 36°08' W 005°25'0 0.0
2017-Nov-16 04:08N 36°08' W 005°25'0 0.0
2017-Nov-16 03:44N 36°08' W 005°25'0 0.0
2017-Nov-16 03:29N 36°08' W 005°25'0 0.0
2017-Nov-16 02:49N 36°08' W 005°25'0 0.0
2017-Nov-16 02:07N 36°08' W 005°25'0 0.0
2017-Nov-16 01:58N 36°08' W 005°25'0 0.0
2017-Nov-16 01:27N 36°08' W 005°25'0 0.0
2017-Nov-16 00:50N 36°08' W 005°25'0 0.0
2017-Nov-16 00:28N 36°08' W 005°25'0 0.0
2017-Nov-16 00:00N 36°08' W 005°25'0 0.0
2017-Nov-15 23:29N 36°08' W 005°25'0 0.0
2017-Nov-15 22:59N 36°08' W 005°25'0 0.0
2017-Nov-15 22:25N 36°08' W 005°25'0 0.0
2017-Nov-15 21:55N 36°08' W 005°25'0 0.0
2017-Nov-15 21:28N 36°08' W 005°25'0 0.0
2017-Nov-15 19:51N 36°08' W 005°25'0 0.0
2017-Nov-15 19:27N 36°08' W 005°25'6 1.3
2017-Nov-15 14:45N 36°02' W 005°23'3 9.7
2017-Nov-15 14:29N 35°59' W 005°24'4 9.3
2017-Nov-15 14:01N 35°58' W 005°29'56318.4
2017-Nov-14 07:19N 28°59' W 012°55'412.9
2017-Nov-14 07:00N 28°55' W 012°58'812.5
2017-Nov-14 06:21N 28°49' W 013°03'412.6
2017-Nov-14 06:00N 28°45' W 013°07'712.9
2017-Nov-14 05:29N 28°40' W 013°11'813.1
2017-Nov-14 04:54N 28°34' W 013°16'613.2
2017-Nov-14 04:28N 28°29' W 013°20'1113.5
2017-Nov-14 03:41N 28°20' W 013°27'613.4
2017-Nov-14 03:16N 28°16' W 013°30'613.5
2017-Nov-14 02:48N 28°11' W 013°35'413.5
2017-Nov-14 02:30N 28°08' W 013°37'713.5
2017-Nov-14 02:00N 28°02' W 013°42'913.4
2017-Nov-14 01:19N 27°55' W 013°48'413.3
2017-Nov-14 01:00N 27°51' W 013°50'  
2017-Nov-10 23:13N 08°18' W 014°30'  

Dump ship's entire track history